sensor_id;sensor_type;location;lat;lon;timestamp;P1;durP1;ratioP1;P2;durP2;ratioP2
14251;SDS011;7210;51.502;10.722;2023-09-18T00:07:57;8.40;;;7.27;;
14251;SDS011;7210;51.502;10.722;2023-09-18T00:10:25;7.67;;;6.97;;
14251;SDS011;7210;51.502;10.722;2023-09-18T00:12:54;7.60;;;7.00;;
14251;SDS011;7210;51.502;10.722;2023-09-18T00:15:22;7.80;;;7.10;;
14251;SDS011;7210;51.502;10.722;2023-09-18T00:17:52;7.63;;;6.83;;
14251;SDS011;7210;51.502;10.722;2023-09-18T00:20:20;7.47;;;6.33;;
14251;SDS011;7210;51.502;10.722;2023-09-18T00:23:12;8.33;;;7.63;;
14251;SDS011;7210;51.502;10.722;2023-09-18T00:25:46;7.67;;;6.97;;
14251;SDS011;7210;51.502;10.722;2023-09-18T00:28:14;7.90;;;7.10;;
14251;SDS011;7210;51.502;10.722;2023-09-18T00:30:52;7.37;;;6.77;;
14251;SDS011;7210;51.502;10.722;2023-09-18T00:33:20;7.80;;;7.00;;
14251;SDS011;7210;51.502;10.722;2023-09-18T00:35:53;9.00;;;6.80;;
14251;SDS011;7210;51.502;10.722;2023-09-18T00:38:22;7.63;;;6.80;;
14251;SDS011;7210;51.502;10.722;2023-09-18T00:40:49;7.73;;;7.03;;
14251;SDS011;7210;51.502;10.722;2023-09-18T00:43:22;7.23;;;6.63;;
14251;SDS011;7210;51.502;10.722;2023-09-18T00:45:50;7.60;;;6.90;;
14251;SDS011;7210;51.502;10.722;2023-09-18T00:48:18;7.33;;;6.63;;
14251;SDS011;7210;51.502;10.722;2023-09-18T00:50:46;7.47;;;6.33;;
14251;SDS011;7210;51.502;10.722;2023-09-18T00:53:17;7.13;;;6.43;;
14251;SDS011;7210;51.502;10.722;2023-09-18T00:55:50;8.03;;;7.07;;
14251;SDS011;7210;51.502;10.722;2023-09-18T00:58:23;7.20;;;6.50;;
14251;SDS011;7210;51.502;10.722;2023-09-18T01:00:52;7.40;;;6.70;;
14251;SDS011;7210;51.502;10.722;2023-09-18T01:03:34;7.80;;;7.00;;
14251;SDS011;7210;51.502;10.722;2023-09-18T01:06:02;7.33;;;6.73;;
14251;SDS011;7210;51.502;10.722;2023-09-18T01:08:31;7.03;;;6.43;;
14251;SDS011;7210;51.502;10.722;2023-09-18T01:10:59;7.33;;;6.73;;
14251;SDS011;7210;51.502;10.722;2023-09-18T01:13:41;7.47;;;6.77;;
14251;SDS011;7210;51.502;10.722;2023-09-18T01:16:18;6.70;;;6.10;;
14251;SDS011;7210;51.502;10.722;2023-09-18T01:18:53;7.20;;;6.60;;
14251;SDS011;7210;51.502;10.722;2023-09-18T01:21:22;7.67;;;6.20;;
14251;SDS011;7210;51.502;10.722;2023-09-18T01:26:34;7.53;;;6.07;;
14251;SDS011;7210;51.502;10.722;2023-09-18T01:29:02;6.40;;;5.80;;
14251;SDS011;7210;51.502;10.722;2023-09-18T01:31:29;8.53;;;7.20;;
14251;SDS011;7210;51.502;10.722;2023-09-18T01:33:56;7.67;;;6.90;;
14251;SDS011;7210;51.502;10.722;2023-09-18T01:36:25;7.40;;;6.70;;
14251;SDS011;7210;51.502;10.722;2023-09-18T01:39:12;7.10;;;6.50;;
14251;SDS011;7210;51.502;10.722;2023-09-18T01:41:42;7.23;;;6.63;;
14251;SDS011;7210;51.502;10.722;2023-09-18T01:44:10;7.00;;;6.33;;
14251;SDS011;7210;51.502;10.722;2023-09-18T01:46:37;8.40;;;7.60;;
14251;SDS011;7210;51.502;10.722;2023-09-18T01:49:06;7.87;;;7.27;;
14251;SDS011;7210;51.502;10.722;2023-09-18T01:51:40;8.00;;;7.30;;
14251;SDS011;7210;51.502;10.722;2023-09-18T01:54:08;8.10;;;7.20;;
14251;SDS011;7210;51.502;10.722;2023-09-18T01:56:36;7.00;;;6.40;;
14251;SDS011;7210;51.502;10.722;2023-09-18T01:59:04;7.80;;;7.07;;
14251;SDS011;7210;51.502;10.722;2023-09-18T02:01:32;7.43;;;6.80;;
14251;SDS011;7210;51.502;10.722;2023-09-18T02:04:11;7.40;;;6.80;;
14251;SDS011;7210;51.502;10.722;2023-09-18T02:06:38;6.73;;;6.23;;
14251;SDS011;7210;51.502;10.722;2023-09-18T02:09:06;7.70;;;6.80;;
14251;SDS011;7210;51.502;10.722;2023-09-18T02:11:34;6.57;;;5.97;;
14251;SDS011;7210;51.502;10.722;2023-09-18T02:17:10;7.93;;;7.13;;
14251;SDS011;7210;51.502;10.722;2023-09-18T02:19:38;7.80;;;7.00;;
14251;SDS011;7210;51.502;10.722;2023-09-18T02:22:05;7.43;;;6.80;;
14251;SDS011;7210;51.502;10.722;2023-09-18T02:24:46;7.97;;;7.10;;
14251;SDS011;7210;51.502;10.722;2023-09-18T02:27:15;9.07;;;6.90;;
14251;SDS011;7210;51.502;10.722;2023-09-18T02:29:44;8.33;;;7.33;;
14251;SDS011;7210;51.502;10.722;2023-09-18T02:32:16;7.90;;;7.20;;
14251;SDS011;7210;51.502;10.722;2023-09-18T02:34:52;10.10;;;6.97;;
14251;SDS011;7210;51.502;10.722;2023-09-18T02:37:22;7.77;;;6.97;;
14251;SDS011;7210;51.502;10.722;2023-09-18T02:39:50;7.17;;;6.50;;
14251;SDS011;7210;51.502;10.722;2023-09-18T02:42:24;8.43;;;6.80;;
14251;SDS011;7210;51.502;10.722;2023-09-18T02:44:52;7.33;;;6.73;;
14251;SDS011;7210;51.502;10.722;2023-09-18T02:47:28;6.93;;;6.23;;
14251;SDS011;7210;51.502;10.722;2023-09-18T02:49:58;7.30;;;6.27;;
14251;SDS011;7210;51.502;10.722;2023-09-18T02:52:26;7.33;;;6.73;;
14251;SDS011;7210;51.502;10.722;2023-09-18T02:54:54;7.17;;;6.57;;
14251;SDS011;7210;51.502;10.722;2023-09-18T02:57:21;7.77;;;6.17;;
14251;SDS011;7210;51.502;10.722;2023-09-18T02:59:58;7.00;;;6.40;;
14251;SDS011;7210;51.502;10.722;2023-09-18T03:02:28;7.73;;;7.07;;
14251;SDS011;7210;51.502;10.722;2023-09-18T03:05:05;8.20;;;6.70;;
14251;SDS011;7210;51.502;10.722;2023-09-18T03:07:34;7.20;;;6.60;;
14251;SDS011;7210;51.502;10.722;2023-09-18T03:10:02;7.27;;;6.57;;
14251;SDS011;7210;51.502;10.722;2023-09-18T03:12:36;7.30;;;6.57;;
14251;SDS011;7210;51.502;10.722;2023-09-18T03:15:05;7.47;;;6.80;;
14251;SDS011;7210;51.502;10.722;2023-09-18T03:17:34;10.63;;;7.03;;
14251;SDS011;7210;51.502;10.722;2023-09-18T03:20:02;7.13;;;6.47;;
14251;SDS011;7210;51.502;10.722;2023-09-18T03:22:46;9.43;;;8.50;;
14251;SDS011;7210;51.502;10.722;2023-09-18T03:25:22;9.17;;;8.27;;
14251;SDS011;7210;51.502;10.722;2023-09-18T03:27:52;7.93;;;7.23;;
14251;SDS011;7210;51.502;10.722;2023-09-18T03:30:28;8.10;;;7.37;;
14251;SDS011;7210;51.502;10.722;2023-09-18T03:32:56;8.00;;;7.30;;
14251;SDS011;7210;51.502;10.722;2023-09-18T03:35:44;10.50;;;9.20;;
14251;SDS011;7210;51.502;10.722;2023-09-18T03:38:17;10.67;;;8.87;;
14251;SDS011;7210;51.502;10.722;2023-09-18T03:40:59;9.80;;;8.80;;
14251;SDS011;7210;51.502;10.722;2023-09-18T03:43:28;9.23;;;8.00;;
14251;SDS011;7210;51.502;10.722;2023-09-18T03:46:03;8.07;;;7.43;;
14251;SDS011;7210;51.502;10.722;2023-09-18T03:48:34;9.47;;;8.30;;
14251;SDS011;7210;51.502;10.722;2023-09-18T03:51:03;8.80;;;7.87;;
14251;SDS011;7210;51.502;10.722;2023-09-18T03:53:31;8.80;;;7.90;;
14251;SDS011;7210;51.502;10.722;2023-09-18T03:56:04;9.73;;;7.87;;
14251;SDS011;7210;51.502;10.722;2023-09-18T03:58:36;8.80;;;7.90;;
14251;SDS011;7210;51.502;10.722;2023-09-18T04:01:03;8.57;;;7.77;;
14251;SDS011;7210;51.502;10.722;2023-09-18T04:03:30;8.53;;;7.73;;
14251;SDS011;7210;51.502;10.722;2023-09-18T04:05:58;8.63;;;7.73;;
14251;SDS011;7210;51.502;10.722;2023-09-18T04:08:28;10.27;;;8.13;;
14251;SDS011;7210;51.502;10.722;2023-09-18T04:10:59;8.20;;;7.50;;
14251;SDS011;7210;51.502;10.722;2023-09-18T04:13:26;10.10;;;8.70;;
14251;SDS011;7210;51.502;10.722;2023-09-18T04:15:55;9.50;;;8.50;;
14251;SDS011;7210;51.502;10.722;2023-09-18T04:21:22;10.50;;;8.13;;
14251;SDS011;7210;51.502;10.722;2023-09-18T04:23:50;10.20;;;8.17;;
14251;SDS011;7210;51.502;10.722;2023-09-18T04:26:22;9.43;;;8.53;;
14251;SDS011;7210;51.502;10.722;2023-09-18T04:28:54;9.37;;;8.47;;
14251;SDS011;7210;51.502;10.722;2023-09-18T04:31:23;9.03;;;7.77;;
14251;SDS011;7210;51.502;10.722;2023-09-18T04:33:51;8.60;;;7.70;;
14251;SDS011;7210;51.502;10.722;2023-09-18T04:36:18;8.70;;;7.43;;
14251;SDS011;7210;51.502;10.722;2023-09-18T04:38:46;9.57;;;7.67;;
14251;SDS011;7210;51.502;10.722;2023-09-18T04:41:13;8.50;;;7.63;;
14251;SDS011;7210;51.502;10.722;2023-09-18T04:43:41;9.07;;;6.90;;
14251;SDS011;7210;51.502;10.722;2023-09-18T04:46:10;8.40;;;7.53;;
14251;SDS011;7210;51.502;10.722;2023-09-18T04:48:40;7.40;;;6.80;;
14251;SDS011;7210;51.502;10.722;2023-09-18T04:51:16;9.77;;;7.27;;
14251;SDS011;7210;51.502;10.722;2023-09-18T04:53:46;7.73;;;7.00;;
14251;SDS011;7210;51.502;10.722;2023-09-18T04:56:14;7.77;;;7.07;;
14251;SDS011;7210;51.502;10.722;2023-09-18T04:58:41;7.10;;;6.47;;
14251;SDS011;7210;51.502;10.722;2023-09-18T05:01:08;7.63;;;7.00;;
14251;SDS011;7210;51.502;10.722;2023-09-18T05:03:42;8.47;;;6.83;;
14251;SDS011;7210;51.502;10.722;2023-09-18T05:06:10;7.37;;;6.73;;
14251;SDS011;7210;51.502;10.722;2023-09-18T05:08:40;7.73;;;7.07;;
14251;SDS011;7210;51.502;10.722;2023-09-18T05:11:08;8.30;;;7.27;;
14251;SDS011;7210;51.502;10.722;2023-09-18T05:13:35;8.40;;;7.53;;
14251;SDS011;7210;51.502;10.722;2023-09-18T05:16:04;12.67;;;8.10;;
14251;SDS011;7210;51.502;10.722;2023-09-18T05:18:32;8.53;;;7.00;;
14251;SDS011;7210;51.502;10.722;2023-09-18T05:21:06;9.80;;;8.60;;
14251;SDS011;7210;51.502;10.722;2023-09-18T05:23:36;11.83;;;9.80;;
14251;SDS011;7210;51.502;10.722;2023-09-18T05:26:07;10.13;;;9.10;;
14251;SDS011;7210;51.502;10.722;2023-09-18T05:28:40;10.53;;;9.53;;
14251;SDS011;7210;51.502;10.722;2023-09-18T05:31:08;11.07;;;9.97;;
14251;SDS011;7210;51.502;10.722;2023-09-18T05:33:36;10.57;;;9.57;;
14251;SDS011;7210;51.502;10.722;2023-09-18T05:36:13;11.40;;;10.07;;
14251;SDS011;7210;51.502;10.722;2023-09-18T05:38:40;13.00;;;10.80;;
14251;SDS011;7210;51.502;10.722;2023-09-18T05:41:08;12.70;;;10.53;;
14251;SDS011;7210;51.502;10.722;2023-09-18T05:43:41;13.20;;;10.40;;
14251;SDS011;7210;51.502;10.722;2023-09-18T05:46:08;12.17;;;9.77;;
14251;SDS011;7210;51.502;10.722;2023-09-18T05:48:35;11.80;;;10.63;;
14251;SDS011;7210;51.502;10.722;2023-09-18T05:51:03;12.03;;;10.83;;
14251;SDS011;7210;51.502;10.722;2023-09-18T05:53:35;13.70;;;10.90;;
14251;SDS011;7210;51.502;10.722;2023-09-18T05:56:03;11.93;;;10.80;;
14251;SDS011;7210;51.502;10.722;2023-09-18T05:58:31;11.87;;;10.73;;
14251;SDS011;7210;51.502;10.722;2023-09-18T06:00:58;10.83;;;9.67;;
14251;SDS011;7210;51.502;10.722;2023-09-18T06:03:26;11.00;;;9.90;;
14251;SDS011;7210;51.502;10.722;2023-09-18T06:05:55;10.80;;;9.70;;
14251;SDS011;7210;51.502;10.722;2023-09-18T06:08:23;13.17;;;10.90;;
14251;SDS011;7210;51.502;10.722;2023-09-18T06:10:52;12.23;;;11.07;;
14251;SDS011;7210;51.502;10.722;2023-09-18T06:13:20;12.03;;;10.70;;
14251;SDS011;7210;51.502;10.722;2023-09-18T06:18:32;10.93;;;10.00;;
14251;SDS011;7210;51.502;10.722;2023-09-18T06:23:41;11.03;;;9.83;;
14251;SDS011;7210;51.502;10.722;2023-09-18T06:26:09;12.17;;;10.20;;
14251;SDS011;7210;51.502;10.722;2023-09-18T06:28:36;10.97;;;9.97;;
14251;SDS011;7210;51.502;10.722;2023-09-18T06:31:04;11.97;;;10.90;;
14251;SDS011;7210;51.502;10.722;2023-09-18T06:33:35;11.57;;;10.57;;
14251;SDS011;7210;51.502;10.722;2023-09-18T06:36:05;12.50;;;11.20;;
14251;SDS011;7210;51.502;10.722;2023-09-18T06:38:32;11.77;;;10.67;;
14251;SDS011;7210;51.502;10.722;2023-09-18T06:40:59;12.03;;;10.90;;
14251;SDS011;7210;51.502;10.722;2023-09-18T06:43:30;10.73;;;9.53;;
14251;SDS011;7210;51.502;10.722;2023-09-18T06:45:58;11.27;;;10.17;;
14251;SDS011;7210;51.502;10.722;2023-09-18T06:48:29;11.73;;;9.90;;
14251;SDS011;7210;51.502;10.722;2023-09-18T06:51:05;9.27;;;8.47;;
14251;SDS011;7210;51.502;10.722;2023-09-18T06:53:32;8.83;;;8.03;;
14251;SDS011;7210;51.502;10.722;2023-09-18T06:56:04;10.20;;;9.20;;
14251;SDS011;7210;51.502;10.722;2023-09-18T06:58:32;9.23;;;8.00;;
14251;SDS011;7210;51.502;10.722;2023-09-18T07:01:00;8.53;;;7.73;;
14251;SDS011;7210;51.502;10.722;2023-09-18T07:06:17;35.17;;;9.97;;
14251;SDS011;7210;51.502;10.722;2023-09-18T07:08:47;9.20;;;7.50;;
14251;SDS011;7210;51.502;10.722;2023-09-18T07:11:17;9.33;;;7.90;;
14251;SDS011;7210;51.502;10.722;2023-09-18T07:13:45;9.47;;;7.33;;
14251;SDS011;7210;51.502;10.722;2023-09-18T07:16:13;8.20;;;7.17;;
14251;SDS011;7210;51.502;10.722;2023-09-18T07:18:53;10.00;;;8.57;;
14251;SDS011;7210;51.502;10.722;2023-09-18T07:21:29;9.27;;;8.47;;
14251;SDS011;7210;51.502;10.722;2023-09-18T07:23:56;9.47;;;8.53;;
14251;SDS011;7210;51.502;10.722;2023-09-18T07:26:41;9.20;;;8.07;;
14251;SDS011;7210;51.502;10.722;2023-09-18T07:29:13;10.87;;;8.67;;
14251;SDS011;7210;51.502;10.722;2023-09-18T07:31:41;9.40;;;8.50;;
14251;SDS011;7210;51.502;10.722;2023-09-18T07:34:09;9.40;;;8.43;;
14251;SDS011;7210;51.502;10.722;2023-09-18T07:36:53;13.17;;;11.77;;
14251;SDS011;7210;51.502;10.722;2023-09-18T07:39:21;11.37;;;10.27;;
14251;SDS011;7210;51.502;10.722;2023-09-18T07:41:49;11.77;;;10.50;;
14251;SDS011;7210;51.502;10.722;2023-09-18T07:44:20;12.87;;;9.43;;
14251;SDS011;7210;51.502;10.722;2023-09-18T07:46:48;10.00;;;9.00;;
14251;SDS011;7210;51.502;10.722;2023-09-18T07:49:29;10.13;;;9.13;;
14251;SDS011;7210;51.502;10.722;2023-09-18T07:51:56;10.97;;;8.90;;
14251;SDS011;7210;51.502;10.722;2023-09-18T07:54:23;11.10;;;8.57;;
14251;SDS011;7210;51.502;10.722;2023-09-18T07:56:50;12.47;;;8.63;;
14251;SDS011;7210;51.502;10.722;2023-09-18T07:59:19;10.13;;;9.07;;
14251;SDS011;7210;51.502;10.722;2023-09-18T08:01:46;10.87;;;9.03;;
14251;SDS011;7210;51.502;10.722;2023-09-18T08:04:17;9.53;;;8.43;;
14251;SDS011;7210;51.502;10.722;2023-09-18T08:06:44;9.10;;;8.30;;
14251;SDS011;7210;51.502;10.722;2023-09-18T08:09:17;9.63;;;8.63;;
14251;SDS011;7210;51.502;10.722;2023-09-18T08:11:47;13.23;;;10.23;;
14251;SDS011;7210;51.502;10.722;2023-09-18T08:14:15;9.90;;;8.90;;
14251;SDS011;7210;51.502;10.722;2023-09-18T08:16:43;10.20;;;9.10;;
14251;SDS011;7210;51.502;10.722;2023-09-18T08:19:23;9.47;;;8.57;;
14251;SDS011;7210;51.502;10.722;2023-09-18T08:21:52;9.07;;;8.27;;
14251;SDS011;7210;51.502;10.722;2023-09-18T08:24:21;9.30;;;8.40;;
14251;SDS011;7210;51.502;10.722;2023-09-18T08:26:59;21.00;;;18.10;;
14251;SDS011;7210;51.502;10.722;2023-09-18T08:29:26;10.27;;;9.23;;
14251;SDS011;7210;51.502;10.722;2023-09-18T08:31:54;10.00;;;8.30;;
14251;SDS011;7210;51.502;10.722;2023-09-18T08:34:22;8.50;;;7.70;;
14251;SDS011;7210;51.502;10.722;2023-09-18T08:36:49;8.30;;;7.60;;
14251;SDS011;7210;51.502;10.722;2023-09-18T08:39:16;7.63;;;6.93;;
14251;SDS011;7210;51.502;10.722;2023-09-18T08:41:47;8.57;;;7.73;;
14251;SDS011;7210;51.502;10.722;2023-09-18T08:44:22;7.97;;;7.17;;
14251;SDS011;7210;51.502;10.722;2023-09-18T08:46:55;7.80;;;6.50;;
14251;SDS011;7210;51.502;10.722;2023-09-18T08:49:23;7.57;;;6.87;;
14251;SDS011;7210;51.502;10.722;2023-09-18T08:51:51;9.27;;;7.13;;
14251;SDS011;7210;51.502;10.722;2023-09-18T08:54:21;7.83;;;6.60;;
14251;SDS011;7210;51.502;10.722;2023-09-18T08:56:50;7.97;;;7.17;;
14251;SDS011;7210;51.502;10.722;2023-09-18T08:59:17;7.20;;;6.47;;
14251;SDS011;7210;51.502;10.722;2023-09-18T09:01:53;11.17;;;7.33;;
14251;SDS011;7210;51.502;10.722;2023-09-18T09:04:21;7.10;;;6.37;;
14251;SDS011;7210;51.502;10.722;2023-09-18T09:06:49;7.07;;;6.37;;
14251;SDS011;7210;51.502;10.722;2023-09-18T09:09:16;6.87;;;6.27;;
14251;SDS011;7210;51.502;10.722;2023-09-18T09:11:47;7.63;;;6.53;;
14251;SDS011;7210;51.502;10.722;2023-09-18T09:14:16;17.13;;;15.37;;
14251;SDS011;7210;51.502;10.722;2023-09-18T09:16:47;9.93;;;8.93;;
14251;SDS011;7210;51.502;10.722;2023-09-18T09:19:18;9.53;;;8.63;;
14251;SDS011;7210;51.502;10.722;2023-09-18T09:21:56;10.37;;;9.27;;
14251;SDS011;7210;51.502;10.722;2023-09-18T09:24:43;9.77;;;8.77;;
14251;SDS011;7210;51.502;10.722;2023-09-18T09:27:11;10.10;;;9.10;;
14251;SDS011;7210;51.502;10.722;2023-09-18T09:29:40;10.10;;;8.20;;
14251;SDS011;7210;51.502;10.722;2023-09-18T09:32:14;9.73;;;8.17;;
14251;SDS011;7210;51.502;10.722;2023-09-18T09:34:45;11.30;;;9.05;;
14251;SDS011;7210;51.502;10.722;2023-09-18T09:37:17;14.52;;;11.80;;
14251;SDS011;7210;51.502;10.722;2023-09-18T09:39:51;19.43;;;15.67;;
14251;SDS011;7210;51.502;10.722;2023-09-18T09:42:23;14.23;;;11.00;;
14251;SDS011;7210;51.502;10.722;2023-09-18T09:45:07;8.30;;;6.45;;
14251;SDS011;7210;51.502;10.722;2023-09-18T09:47:38;41.40;;;18.92;;
14251;SDS011;7210;51.502;10.722;2023-09-18T09:50:11;12.05;;;8.23;;
14251;SDS011;7210;51.502;10.722;2023-09-18T09:52:47;7.20;;;3.97;;
14251;SDS011;7210;51.502;10.722;2023-09-18T09:55:26;7.40;;;3.83;;
14251;SDS011;7210;51.502;10.722;2023-09-18T09:57:59;6.90;;;4.25;;
14251;SDS011;7210;51.502;10.722;2023-09-18T10:00:29;4.80;;;3.13;;
14251;SDS011;7210;51.502;10.722;2023-09-18T10:03:03;5.95;;;2.92;;
14251;SDS011;7210;51.502;10.722;2023-09-18T10:05:36;7.80;;;3.17;;
14251;SDS011;7210;51.502;10.722;2023-09-18T10:08:18;6.68;;;3.67;;
14251;SDS011;7210;51.502;10.722;2023-09-18T10:11:05;5.10;;;3.20;;
14251;SDS011;7210;51.502;10.722;2023-09-18T10:13:36;4.68;;;3.08;;
14251;SDS011;7210;51.502;10.722;2023-09-18T10:16:12;4.45;;;3.10;;
14251;SDS011;7210;51.502;10.722;2023-09-18T10:18:45;5.30;;;3.17;;
14251;SDS011;7210;51.502;10.722;2023-09-18T10:21:33;4.07;;;3.20;;
14251;SDS011;7210;51.502;10.722;2023-09-18T10:24:14;4.57;;;3.10;;
14251;SDS011;7210;51.502;10.722;2023-09-18T10:26:54;4.03;;;2.95;;
14251;SDS011;7210;51.502;10.722;2023-09-18T10:29:24;3.53;;;2.65;;
14251;SDS011;7210;51.502;10.722;2023-09-18T10:32:05;5.80;;;2.90;;
14251;SDS011;7210;51.502;10.722;2023-09-18T10:34:41;4.68;;;2.97;;
14251;SDS011;7210;51.502;10.722;2023-09-18T10:37:12;6.78;;;3.00;;
14251;SDS011;7210;51.502;10.722;2023-09-18T10:39:41;4.50;;;2.85;;
14251;SDS011;7210;51.502;10.722;2023-09-18T10:42:17;3.55;;;2.60;;
14251;SDS011;7210;51.502;10.722;2023-09-18T10:44:47;5.40;;;2.60;;
14251;SDS011;7210;51.502;10.722;2023-09-18T10:47:16;4.03;;;2.80;;
14251;SDS011;7210;51.502;10.722;2023-09-18T10:49:53;4.63;;;2.53;;
14251;SDS011;7210;51.502;10.722;2023-09-18T10:52:22;5.63;;;2.55;;
14251;SDS011;7210;51.502;10.722;2023-09-18T10:54:50;6.80;;;2.33;;
14251;SDS011;7210;51.502;10.722;2023-09-18T10:57:18;5.18;;;2.15;;
14251;SDS011;7210;51.502;10.722;2023-09-18T10:59:54;5.45;;;2.13;;
14251;SDS011;7210;51.502;10.722;2023-09-18T11:02:21;4.22;;;2.30;;
14251;SDS011;7210;51.502;10.722;2023-09-18T11:04:50;4.13;;;1.70;;
14251;SDS011;7210;51.502;10.722;2023-09-18T11:07:22;4.28;;;1.90;;
14251;SDS011;7210;51.502;10.722;2023-09-18T11:09:53;4.47;;;2.10;;
14251;SDS011;7210;51.502;10.722;2023-09-18T11:12:20;3.08;;;1.70;;
14251;SDS011;7210;51.502;10.722;2023-09-18T11:15:24;4.80;;;2.10;;
14251;SDS011;7210;51.502;10.722;2023-09-18T11:17:58;3.42;;;2.00;;
14251;SDS011;7210;51.502;10.722;2023-09-18T11:20:28;8.57;;;2.15;;
14251;SDS011;7210;51.502;10.722;2023-09-18T11:22:57;2.97;;;1.85;;
14251;SDS011;7210;51.502;10.722;2023-09-18T11:25:36;3.80;;;1.83;;
14251;SDS011;7210;51.502;10.722;2023-09-18T11:28:07;4.72;;;2.22;;
14251;SDS011;7210;51.502;10.722;2023-09-18T11:30:53;4.55;;;1.92;;
14251;SDS011;7210;51.502;10.722;2023-09-18T11:33:30;3.03;;;1.80;;
14251;SDS011;7210;51.502;10.722;2023-09-18T11:36:02;3.83;;;2.28;;
14251;SDS011;7210;51.502;10.722;2023-09-18T11:38:35;7.97;;;2.40;;
14251;SDS011;7210;51.502;10.722;2023-09-18T11:41:19;3.20;;;1.98;;
14251;SDS011;7210;51.502;10.722;2023-09-18T11:43:50;4.22;;;2.40;;
14251;SDS011;7210;51.502;10.722;2023-09-18T11:46:18;4.85;;;1.90;;
14251;SDS011;7210;51.502;10.722;2023-09-18T11:48:47;5.18;;;2.13;;
14251;SDS011;7210;51.502;10.722;2023-09-18T11:51:22;6.88;;;2.40;;
14251;SDS011;7210;51.502;10.722;2023-09-18T11:53:55;3.97;;;2.30;;
14251;SDS011;7210;51.502;10.722;2023-09-18T11:56:24;5.05;;;1.90;;
14251;SDS011;7210;51.502;10.722;2023-09-18T11:58:53;3.30;;;2.10;;
14251;SDS011;7210;51.502;10.722;2023-09-18T12:01:23;3.67;;;2.17;;
14251;SDS011;7210;51.502;10.722;2023-09-18T12:03:54;6.18;;;2.22;;
14251;SDS011;7210;51.502;10.722;2023-09-18T12:06:29;6.35;;;2.40;;
14251;SDS011;7210;51.502;10.722;2023-09-18T12:09:00;8.50;;;2.60;;
14251;SDS011;7210;51.502;10.722;2023-09-18T12:11:28;3.83;;;1.92;;
14251;SDS011;7210;51.502;10.722;2023-09-18T12:13:56;6.88;;;2.35;;
14251;SDS011;7210;51.502;10.722;2023-09-18T12:16:24;5.40;;;2.00;;
14251;SDS011;7210;51.502;10.722;2023-09-18T12:18:52;4.90;;;2.10;;
14251;SDS011;7210;51.502;10.722;2023-09-18T12:23:56;3.95;;;1.92;;
14251;SDS011;7210;51.502;10.722;2023-09-18T12:26:25;6.05;;;2.28;;
14251;SDS011;7210;51.502;10.722;2023-09-18T12:28:55;8.23;;;2.22;;
14251;SDS011;7210;51.502;10.722;2023-09-18T12:31:23;5.57;;;2.10;;
14251;SDS011;7210;51.502;10.722;2023-09-18T12:33:52;4.90;;;2.10;;
14251;SDS011;7210;51.502;10.722;2023-09-18T12:36:20;5.43;;;2.30;;
14251;SDS011;7210;51.502;10.722;2023-09-18T12:38:55;5.57;;;2.90;;
14251;SDS011;7210;51.502;10.722;2023-09-18T12:41:23;3.53;;;2.15;;
14251;SDS011;7210;51.502;10.722;2023-09-18T12:43:53;6.22;;;2.67;;
14251;SDS011;7210;51.502;10.722;2023-09-18T12:46:23;3.83;;;1.95;;
14251;SDS011;7210;51.502;10.722;2023-09-18T12:48:50;5.70;;;2.20;;
14251;SDS011;7210;51.502;10.722;2023-09-18T12:51:17;11.02;;;2.45;;
14251;SDS011;7210;51.502;10.722;2023-09-18T12:54:05;5.55;;;2.42;;
14251;SDS011;7210;51.502;10.722;2023-09-18T12:56:42;4.68;;;1.90;;
14251;SDS011;7210;51.502;10.722;2023-09-18T12:59:11;6.63;;;2.42;;
14251;SDS011;7210;51.502;10.722;2023-09-18T13:01:40;6.45;;;2.30;;
14251;SDS011;7210;51.502;10.722;2023-09-18T13:04:13;6.07;;;2.22;;
14251;SDS011;7210;51.502;10.722;2023-09-18T13:06:40;5.07;;;2.17;;
14251;SDS011;7210;51.502;10.722;2023-09-18T13:09:17;6.05;;;2.15;;
14251;SDS011;7210;51.502;10.722;2023-09-18T13:11:55;9.23;;;2.38;;
14251;SDS011;7210;51.502;10.722;2023-09-18T13:14:29;7.63;;;2.25;;
14251;SDS011;7210;51.502;10.722;2023-09-18T13:17:01;5.90;;;2.47;;
14251;SDS011;7210;51.502;10.722;2023-09-18T13:19:29;4.13;;;2.20;;
14251;SDS011;7210;51.502;10.722;2023-09-18T13:21:57;5.57;;;2.13;;
14251;SDS011;7210;51.502;10.722;2023-09-18T13:24:29;4.82;;;2.58;;
14251;SDS011;7210;51.502;10.722;2023-09-18T13:26:59;7.50;;;2.20;;
14251;SDS011;7210;51.502;10.722;2023-09-18T13:29:29;5.50;;;2.22;;
14251;SDS011;7210;51.502;10.722;2023-09-18T13:31:56;6.28;;;2.20;;
14251;SDS011;7210;51.502;10.722;2023-09-18T13:34:29;6.18;;;2.30;;
14251;SDS011;7210;51.502;10.722;2023-09-18T13:36:59;5.07;;;2.22;;
14251;SDS011;7210;51.502;10.722;2023-09-18T13:39:26;5.55;;;2.22;;
14251;SDS011;7210;51.502;10.722;2023-09-18T13:42:00;6.75;;;2.25;;
14251;SDS011;7210;51.502;10.722;2023-09-18T13:44:28;6.05;;;2.05;;
14251;SDS011;7210;51.502;10.722;2023-09-18T13:46:59;6.00;;;2.30;;
14251;SDS011;7210;51.502;10.722;2023-09-18T13:49:35;5.47;;;2.10;;
14251;SDS011;7210;51.502;10.722;2023-09-18T13:52:02;6.30;;;2.10;;
14251;SDS011;7210;51.502;10.722;2023-09-18T13:54:30;7.95;;;2.40;;
14251;SDS011;7210;51.502;10.722;2023-09-18T13:56:57;4.15;;;2.72;;
14251;SDS011;7210;51.502;10.722;2023-09-18T13:59:26;8.82;;;2.05;;
14251;SDS011;7210;51.502;10.722;2023-09-18T14:01:59;6.85;;;2.75;;
14251;SDS011;7210;51.502;10.722;2023-09-18T14:04:26;7.45;;;2.80;;
14251;SDS011;7210;51.502;10.722;2023-09-18T14:07:11;6.20;;;2.28;;
14251;SDS011;7210;51.502;10.722;2023-09-18T14:09:53;5.65;;;2.97;;
14251;SDS011;7210;51.502;10.722;2023-09-18T14:12:20;6.72;;;2.28;;
14251;SDS011;7210;51.502;10.722;2023-09-18T14:14:54;8.05;;;2.60;;
14251;SDS011;7210;51.502;10.722;2023-09-18T14:17:21;6.75;;;2.88;;
14251;SDS011;7210;51.502;10.722;2023-09-18T14:19:53;5.45;;;2.25;;
14251;SDS011;7210;51.502;10.722;2023-09-18T14:22:23;5.68;;;2.15;;
14251;SDS011;7210;51.502;10.722;2023-09-18T14:24:50;5.70;;;2.53;;
14251;SDS011;7210;51.502;10.722;2023-09-18T14:27:17;8.73;;;2.47;;
14251;SDS011;7210;51.502;10.722;2023-09-18T14:29:45;4.95;;;2.60;;
14251;SDS011;7210;51.502;10.722;2023-09-18T14:32:18;6.20;;;2.70;;
14251;SDS011;7210;51.502;10.722;2023-09-18T14:34:45;4.65;;;2.17;;
14251;SDS011;7210;51.502;10.722;2023-09-18T14:37:13;10.07;;;2.40;;
14251;SDS011;7210;51.502;10.722;2023-09-18T14:39:40;5.35;;;2.13;;
14251;SDS011;7210;51.502;10.722;2023-09-18T14:42:07;5.72;;;2.22;;
14251;SDS011;7210;51.502;10.722;2023-09-18T14:44:35;7.18;;;2.70;;
14251;SDS011;7210;51.502;10.722;2023-09-18T14:47:05;4.50;;;2.20;;
14251;SDS011;7210;51.502;10.722;2023-09-18T14:49:33;6.77;;;2.57;;
14251;SDS011;7210;51.502;10.722;2023-09-18T14:52:11;4.80;;;3.00;;
14251;SDS011;7210;51.502;10.722;2023-09-18T14:54:38;5.85;;;2.70;;
14251;SDS011;7210;51.502;10.722;2023-09-18T14:57:06;7.97;;;2.70;;
14251;SDS011;7210;51.502;10.722;2023-09-18T14:59:34;3.78;;;2.38;;
14251;SDS011;7210;51.502;10.722;2023-09-18T15:02:01;4.85;;;2.00;;
14251;SDS011;7210;51.502;10.722;2023-09-18T15:04:29;4.63;;;2.45;;
14251;SDS011;7210;51.502;10.722;2023-09-18T15:06:59;4.87;;;2.10;;
14251;SDS011;7210;51.502;10.722;2023-09-18T15:09:26;3.57;;;2.40;;
14251;SDS011;7210;51.502;10.722;2023-09-18T15:11:54;3.87;;;2.10;;
14251;SDS011;7210;51.502;10.722;2023-09-18T15:14:21;4.87;;;2.10;;
14251;SDS011;7210;51.502;10.722;2023-09-18T15:16:53;5.27;;;2.03;;
14251;SDS011;7210;51.502;10.722;2023-09-18T15:19:21;3.97;;;2.27;;
14251;SDS011;7210;51.502;10.722;2023-09-18T15:21:48;6.00;;;2.60;;
14251;SDS011;7210;51.502;10.722;2023-09-18T15:24:19;6.40;;;2.50;;
14251;SDS011;7210;51.502;10.722;2023-09-18T15:26:47;5.00;;;2.27;;
14251;SDS011;7210;51.502;10.722;2023-09-18T15:29:17;3.92;;;2.30;;
14251;SDS011;7210;51.502;10.722;2023-09-18T15:31:44;4.33;;;2.40;;